CST,Max TemperatureF,Mean TemperatureF,Min TemperatureF,Max Dew PointF,MeanDew PointF,Min DewpointF,Max Humidity, Mean Humidity, Min Humidity, Max Sea Level PressureIn, Mean Sea Level PressureIn, Min Sea Level PressureIn, Max VisibilityMiles, Mean VisibilityMiles, Min VisibilityMiles, Max Wind SpeedMPH, Mean Wind SpeedMPH, Max Gust SpeedMPH,PrecipitationIn, CloudCover, Events, WindDirDegrees
2013-1-1,19,10,0,16,6,-6,86,74,62,30.27,30.19,30.03,10,9,5,12,3,,0.00,7,Snow,195
2013-1-2,35,20,6,27,18,1,86,80,70,30.18,30.04,29.97,10,9,4,13,6,18,0.00,6,Snow,266
2013-1-3,32,21,10,27,11,3,86,76,68,30.38,30.29,30.18,10,10,4,20,9,26,0.00,3,Snow,275
2013-1-4,28,20,12,18,11,7,86,73,59,30.21,30.14,30.07,10,10,10,9,6,,0.00,0,,197
2013-1-5,32,20,8,21,12,3,85,74,59,30.16,30.02,29.94,10,10,7,22,7,30,0.00,2,Snow,268
2013-1-6,28,16,6,19,12,1,85,76,64,30.26,30.18,30.02,10,10,2,15,7,20,0.00,0,Snow,204
2013-1-7,37,24,10,25,20,7,93,74,60,30.01,29.97,29.91,10,9,2,28,10,33,0.00,0,,209
2013-1-8,33,20,8,27,17,3,93,83,75,30.07,29.88,29.76,10,8,0,15,3,,0.00,1,Fog,211
2013-1-9,41,29,17,28,26,16,93,74,61,30.40,30.26,30.07,10,10,10,15,6,18,0.00,0,,201
2013-1-10,41,34,28,36,28,21,93,73,52,30.27,29.96,29.63,10,8,2,12,7,16,0.00,5,Rain,161
2013-1-11,42,34,24,39,34,18,93,90,74,29.63,29.49,29.36,10,4,0,23,10,30,0.01,8,Fog,210
2013-1-12,24,16,8,18,5,0,74,64,53,30.13,29.99,29.64,10,10,4,29,18,36,0.00,4,Snow,305
2013-1-13,19,12,6,3,1,0,79,66,46,30.28,30.19,30.10,10,10,10,15,7,22,0.00,2,Snow,314
2013-1-14,28,16,3,14,7,-2,79,69,43,30.41,30.33,30.28,10,10,10,9,3,,0.00,0,,200
2013-1-15,37,26,15,18,14,9,79,65,33,30.28,30.14,29.93,10,10,10,16,8,23,0.00,2,,202
2013-1-16,50,36,21,30,24,10,86,65,43,30.26,29.96,29.80,10,10,10,21,10,30,0.00,3,,297
2013-1-17,39,28,17,30,18,7,93,68,54,30.43,30.35,30.19,10,9,1,12,3,,0.00,6,,207
2013-1-18,55,42,30,30,27,21,93,66,26,30.18,29.93,29.82,10,9,4,16,10,22,0.00,0,,215
2013-1-19,50,32,14,30,22,1,87,61,46,30.34,30.01,29.79,10,10,10,26,9,36,0.00,1,,312
2013-1-20,15,9,1,7,2,-8,79,69,57,30.43,30.37,30.32,10,8,0,15,7,20,0.03,5,Snow,329
2013-1-21,8,3,-2,-4,-8,-15,66,59,52,30.43,30.38,30.33,10,10,3,21,12,28,0.00,1,Snow,314
2013-1-22,17,11,5,9,1,-4,79,64,52,30.37,30.29,30.19,10,10,5,8,3,,0.00,6,Snow,196
2013-1-23,23,13,1,12,5,-11,85,67,49,30.54,30.29,30.13,10,10,10,16,8,23,0.00,0,,353
2013-1-24,19,10,0,7,-4,-13,66,55,49,30.59,30.38,30.12,10,10,10,15,8,20,0.00,3,,140
2013-1-25,37,22,8,25,12,1,85,66,57,30.28,30.15,30.06,10,10,10,16,9,24,0.00,0,,299
2013-1-26,42,26,10,21,11,0,73,57,39,30.27,30.13,29.97,10,10,10,16,7,21,0.00,2,,150
2013-1-27,39,36,33,36,31,21,93,81,49,29.97,29.81,29.71,10,5,0,12,5,16,0.11,7,Fog-Rain,156
2013-1-28,39,37,35,37,36,34,93,93,87,29.84,29.74,29.56,7,1,0,10,3,,0.00,8,Fog,148
2013-1-29,39,34,28,36,30,21,93,81,70,29.75,29.66,29.59,10,8,0,21,9,26,0.00,8,Fog,348
2013-1-30,28,17,6,21,11,-2,80,68,59,29.92,29.81,29.72,10,10,4,23,18,32,0.00,7,Snow,334
2013-1-31,6,2,-2,-2,-9,-13,72,61,51,30.37,30.18,29.91,10,10,4,26,16,34,0.00,2,,317